Time;durP1;ratioP1;P1;durP2;ratioP2;P2;SDS_P1;SDS_P2;PMS_P1;PMS_P2;Temp;Humidity;BMP_temperature;BMP_pressure;BME280_temperature;BME280_humidity;BME280_pressure;Samples;Min_cycle;Max_cycle;Signal;HPM_P1;HPM_P2
2023/06/19 07:01:18;;;;;;;0.30;0.30;;;19.90;99.90;24.30;101052.00;;;;6185944;22;1431263;-63
2023/06/19 07:03:43;;;;;;;1.10;1.00;;;20.60;99.90;24.30;101073.00;;;;6196001;23;20164;-63
2023/06/19 07:06:09;;;;;;;1.30;1.30;;;21.10;99.90;22.70;101051.00;;;;6247802;23;20153;-63
2023/06/19 07:08:40;;;;;;;1.05;0.98;;;20.70;99.90;23.40;101105.00;;;;6220569;23;20161;-63
2023/06/19 07:11:07;;;;;;;2.50;1.65;;;20.80;99.90;22.80;101100.00;;;;6221874;23;20145;-62
2023/06/19 07:13:35;;;;;;;5.82;5.30;;;20.30;99.90;23.60;101125.00;;;;6247271;23;20166;-63
2023/06/19 07:16:07;;;;;;;2.50;2.30;;;20.70;99.90;21.90;101102.00;;;;6248061;23;20150;-63
2023/06/19 07:18:38;;;;;;;0.20;0.20;;;20.00;99.90;24.00;101114.00;;;;6220968;23;20146;-63
2023/06/19 07:21:12;;;;;;;1.10;1.10;;;20.60;99.90;22.90;101111.00;;;;6247451;23;20632;-63
2023/06/19 07:23:41;;;;;;;2.38;2.17;;;20.60;99.90;24.20;101120.00;;;;6220855;23;20145;-63
2023/06/19 07:26:13;;;;;;;0.32;0.32;;;21.30;99.90;24.40;101125.00;;;;6195843;23;20574;-63
2023/06/19 07:28:40;;;;;;;0.75;0.75;;;21.50;99.90;24.60;101125.00;;;;6220577;23;20204;-62
2023/06/19 07:31:11;;;;;;;0.47;0.47;;;21.70;99.90;25.10;101102.00;;;;6220505;23;20171;-63
2023/06/19 07:33:37;;;;;;;0.10;0.10;;;21.90;99.90;26.70;101150.00;;;;6247640;23;20174;-63
2023/06/19 07:36:05;;;;;;;0.98;0.98;;;22.70;99.90;24.20;101102.00;;;;6247650;23;20187;-62
2023/06/19 07:38:34;;;;;;;1.65;1.45;;;21.90;99.90;25.10;101129.00;;;;6220430;23;20189;-63
2023/06/19 07:41:04;;;;;;;1.42;1.15;;;22.00;99.90;22.30;101101.00;;;;6220647;23;20546;-62
2023/06/19 07:43:30;;;;;;;3.88;2.50;;;21.00;99.90;23.70;101113.00;;;;6220336;23;20165;-63
2023/06/19 07:45:56;;;;;;;2.45;1.48;;;21.10;99.90;22.90;101114.00;;;;6247605;23;20249;-62
2023/06/19 07:48:24;;;;;;;4.45;4.03;;;20.80;99.90;23.20;101116.00;;;;6220776;23;20138;-63
2023/06/19 07:50:52;;;;;;;1.52;1.33;;;20.50;99.90;24.90;101131.00;;;;6220886;23;20228;-62
2023/06/19 07:53:18;;;;;;;0.98;0.95;;;21.40;99.90;23.70;101106.00;;;;6247655;23;20494;-62
2023/06/19 07:55:49;;;;;;;0.10;0.10;;;21.10;99.90;25.40;101113.00;;;;6220446;23;20148;-63
2023/06/19 07:58:18;;;;;;;0.47;0.47;;;21.60;99.90;26.60;101152.00;;;;6220677;23;20161;-63
2023/06/19 08:00:44;;;;;;;0.43;0.43;;;22.90;99.90;24.40;101105.00;;;;6215093;23;20204;-63
2023/06/19 08:03:13;;;;;;;0.70;0.65;;;22.30;99.90;25.80;101144.00;;;;6216878;23;20535;-63
2023/06/19 08:05:42;;;;;;;0.65;0.57;;;22.60;99.90;25.60;101148.00;;;;6216357;23;20146;-63
2023/06/19 08:08:15;;;;;;;0.60;0.55;;;22.90;99.90;26.80;101176.00;;;;6216565;23;20138;-63
2023/06/19 08:10:44;;;;;;;0.47;0.47;;;23.50;99.90;25.70;101153.00;;;;6216567;23;20142;-63
2023/06/19 08:13:14;;;;;;;0.75;0.75;;;23.00;99.90;27.80;101172.00;;;;6217122;23;20173;-63
2023/06/19 08:15:40;;;;;;;0.52;0.52;;;23.80;99.90;27.60;101195.00;;;;6215243;23;20210;-63
2023/06/19 08:18:21;;;;;;;0.30;0.30;;;23.90;99.90;28.00;101201.00;;;;6215479;23;20541;-63
2023/06/19 08:20:49;;;;;;;0.43;0.43;;;24.10;99.90;26.00;101231.00;;;;6216511;23;20146;-62
2023/06/19 08:23:18;;;;;;;1.48;1.38;;;23.70;99.90;24.20;101181.00;;;;6215534;23;20609;-62
2023/06/19 08:25:47;;;;;;;0.55;0.52;;;22.20;99.90;26.60;101171.00;;;;6215205;23;20177;-63
2023/06/19 08:28:21;;;;;;;1.08;0.50;;;22.50;99.90;24.10;101175.00;;;;6216482;23;20482;-63
2023/06/19 08:30:49;;;;;;;5.15;3.85;;;22.20;99.90;23.30;101145.00;;;;6214966;23;20185;-62
2023/06/19 08:33:18;;;;;;;1.75;1.40;;;21.60;99.90;23.30;101096.00;;;;6216304;23;20188;-62
2023/06/19 08:35:48;;;;;;;3.13;2.38;;;21.10;99.90;24.30;101153.00;;;;6216220;23;20232;-62
2023/06/19 08:38:19;;;;;;;0.93;0.40;;;21.60;99.90;25.50;101164.00;;;;6216837;23;20208;-63
2023/06/19 08:40:51;;;;;;;0.10;0.10;;;22.10;99.90;26.00;101182.00;;;;6213572;23;20498;-63
2023/06/19 08:43:20;;;;;;;0.70;0.68;;;22.70;99.90;24.50;101158.00;;;;6215125;23;20161;-63
2023/06/19 08:46:18;;;;;;;0.98;0.65;;;22.30;99.90;24.80;101122.00;;;;6214799;23;20204;-63
2023/06/19 08:48:51;;;;;;;1.15;1.05;;;22.20;99.90;25.30;101165.00;;;;6215189;23;20233;-62
2023/06/19 08:51:30;;;;;;;1.30;0.95;;;22.60;99.90;26.60;101165.00;;;;6215075;23;20241;-62
2023/06/19 08:54:04;;;;;;;10.35;2.60;;;23.30;99.90;27.30;101223.00;;;;6216702;23;20157;-62
2023/06/19 08:56:37;;;;;;;0.45;0.45;;;24.40;99.90;28.90;101223.00;;;;6215998;23;20500;-63
2023/06/19 08:59:15;;;;;;;0.50;0.50;;;24.80;99.90;27.00;101255.00;;;;6218418;23;20150;-63
2023/06/19 09:01:53;;;;;;;2.38;1.58;;;24.60;99.90;27.00;101255.00;;;;6246113;23;20164;-63
2023/06/19 09:04:26;;;;;;;1.42;1.17;;;24.50;99.90;27.20;101245.00;;;;6246494;23;20137;-63
2023/06/19 09:07:03;;;;;;;1.63;1.55;;;24.20;99.90;30.80;101214.00;;;;6219898;23;20524;-63
2023/06/19 09:09:32;;;;;;;0.65;0.57;;;26.00;99.90;32.80;101209.00;;;;6220093;23;20152;-63
2023/06/19 09:12:03;;;;;;;0.55;0.55;;;28.00;99.90;31.60;101226.00;;;;6220105;23;20181;-63
2023/06/19 09:14:33;;;;;;;0.52;0.38;;;28.00;99.90;26.80;101297.00;;;;6219683;23;20157;-63
2023/06/19 09:17:10;;;;;;;1.55;1.25;;;25.70;99.90;27.40;101281.00;;;;6219537;23;20169;-63
2023/06/19 09:19:51;;;;;;;0.10;0.10;;;25.00;99.90;30.50;101265.00;;;;6219696;23;20141;-63
2023/06/19 09:22:22;;;;;;;1.17;0.40;;;25.90;99.90;32.10;101227.00;;;;6219883;23;20651;-63
2023/06/19 09:24:50;;;;;;;0.10;0.10;;;27.60;99.90;31.90;101224.00;;;;6219877;23;20216;-63
2023/06/19 09:27:24;;;;;;;0.10;0.10;;;28.80;99.90;34.20;101187.00;;;;6219594;23;20236;-63
2023/06/19 09:29:52;;;;;;;2.05;1.95;;;29.50;99.90;31.00;101231.00;;;;6219983;23;20193;-63
2023/06/19 09:32:22;;;;;;;0.75;0.75;;;28.40;99.90;28.40;101292.00;;;;6246436;23;20174;-63
2023/06/19 09:34:53;;;;;;;0.10;0.10;;;26.90;99.90;29.00;101270.00;;;;6219932;23;20153;-63
2023/06/19 09:37:30;;;;;;;0.98;0.77;;;26.00;99.90;30.00;101236.00;;;;6219623;23;20621;-63
2023/06/19 09:40:10;;;;;;;0.52;0.52;;;26.00;99.90;30.00;101265.00;;;;6246467;23;20146;-63
2023/06/19 09:42:43;;;;;;;0.20;0.20;;;26.40;99.90;29.70;101273.00;;;;6195806;23;20157;-63
2023/06/19 09:45:14;;;;;;;0.30;0.30;;;26.40;99.90;28.50;101292.00;;;;6219882;23;20146;-63
2023/06/19 09:47:47;;;;;;;3.55;3.28;;;25.60;99.90;26.30;101294.00;;;;6219131;23;20144;-63
2023/06/19 09:50:18;;;;;;;6.30;2.42;;;24.20;99.90;27.90;101294.00;;;;6246431;23;20150;-63
2023/06/19 09:52:51;;;;;;;0.30;0.28;;;24.70;99.90;27.00;101285.00;;;;6245808;23;20169;-63
2023/06/19 09:55:28;;;;;;;0.47;0.47;;;24.30;99.90;28.40;101288.00;;;;6246740;23;20170;-63
2023/06/19 09:58:02;;;;;;;6.35;3.88;;;24.80;99.90;28.00;101302.00;;;;6219783;23;20140;-63
2023/06/19 10:00:34;;;;;;;0.10;0.10;;;25.30;99.90;28.70;101283.00;;;;6219493;23;20173;-63
2023/06/19 10:03:02;;;;;;;0.10;0.10;;;25.20;99.90;28.00;101290.00;;;;6219294;23;20153;-63
2023/06/19 10:05:36;;;;;;;0.85;0.85;;;25.50;99.90;30.10;101269.00;;;;6219940;23;20138;-63
2023/06/19 10:08:09;;;;;;;0.38;0.38;;;26.40;99.90;31.30;101244.00;;;;6246104;23;20185;-63
2023/06/19 10:10:51;;;;;;;0.47;0.47;;;27.20;99.90;29.50;101279.00;;;;6245755;23;20505;-63
2023/06/19 10:13:42;;;;;;;1.10;1.10;;;26.40;99.90;28.00;101295.00;;;;6219254;23;20181;-63
2023/06/19 10:16:23;;;;;;;0.10;0.10;;;25.90;99.90;30.20;101263.00;;;;6219698;23;20138;-63
2023/06/19 10:18:50;;;;;;;0.10;0.10;;;26.30;99.90;31.40;101250.00;;;;6219510;23;20181;-63
2023/06/19 10:33:32;;;;;;;1.00;1.00;;;27.20;99.90;31.60;101271.00;;;;5070045;28;20580;-62
2023/06/19 10:36:18;;;;;;;1.45;1.23;;;27.60;99.90;28.50;101299.00;;;;5050518;28;20182;-64
2023/06/19 10:38:52;;;;;;;0.90;0.73;;;27.20;99.90;28.50;101297.00;;;;5047954;28;20182;-64
2023/06/19 10:41:22;;;;;;;0.40;0.35;;;25.40;99.90;29.60;101297.00;;;;5049137;28;20247;-64
2023/06/19 10:44:00;;;;;;;1.67;1.55;;;26.40;99.90;29.20;101295.00;;;;5048585;28;20186;-65
2023/06/19 10:46:31;;;;;;;0.88;0.88;;;25.90;99.90;30.40;101272.00;;;;5049848;28;20265;-65
2023/06/19 10:49:00;;;;;;;0.10;0.10;;;26.60;99.90;31.50;101241.00;;;;5049879;28;20174;-64
2023/06/19 10:51:35;;;;;;;3.78;2.05;;;27.20;99.90;31.00;101244.00;;;;5050104;28;20204;-62
2023/06/19 10:54:03;;;;;;;1.00;0.95;;;27.90;99.90;31.20;101246.00;;;;5049082;28;20190;-62
2023/06/19 10:56:31;;;;;;;1.58;1.48;;;27.90;99.90;31.90;101219.00;;;;5048801;28;20187;-62
2023/06/19 10:59:02;;;;;;;0.73;0.73;;;28.10;99.90;32.70;101202.00;;;;5049971;28;20183;-62
2023/06/19 11:01:36;;;;;;;0.40;0.40;;;28.90;99.90;30.90;101239.00;;;;5049005;28;20665;-62
2023/06/19 11:04:11;;;;;;;0.10;0.10;;;28.60;99.90;31.90;101223.00;;;;5048352;28;20201;-62
2023/06/19 11:06:43;;;;;;;0.20;0.20;;;28.80;99.90;33.50;101175.00;;;;5049436;28;20178;-63
2023/06/19 11:09:11;;;;;;;1.17;0.80;;;29.40;99.90;33.30;101210.00;;;;5048656;28;20186;-62
2023/06/19 11:11:46;;;;;;;0.38;0.38;;;30.10;99.90;33.60;101202.00;;;;5048401;28;20706;-63
2023/06/19 11:14:16;;;;;;;0.40;0.40;;;30.10;99.90;35.00;101188.00;;;;5048114;28;20232;-63
2023/06/19 11:16:50;;;;;;;0.55;0.55;;;30.30;99.90;32.00;101234.00;;;;5048510;28;20185;-63
2023/06/19 11:19:23;;;;;;;1.38;0.43;;;30.50;99.90;34.20;101206.00;;;;5048329;28;20186;-63
2023/06/19 11:22:02;;;;;;;0.57;0.57;;;30.70;99.90;32.70;101217.00;;;;5048153;28;20636;-63
2023/06/19 11:24:36;;;;;;;0.60;0.60;;;30.40;99.90;30.30;101258.00;;;;5032216;28;20620;-63
2023/06/19 11:27:10;;;;;;;0.30;0.30;;;28.70;99.90;32.90;101228.00;;;;5048325;28;20309;-63
2023/06/19 11:29:56;;;;;;;0.60;0.60;;;28.70;99.90;31.20;101252.00;;;;5047849;28;20236;-63
2023/06/19 11:32:32;;;;;;;3.55;0.55;;;28.20;99.90;32.80;101228.00;;;;5031196;28;20221;-63
2023/06/19 11:35:10;;;;;;;0.68;0.63;;;28.50;99.90;31.20;101257.00;;;;5028210;28;20561;-63
2023/06/19 11:37:43;;;;;;;1.52;1.45;;;28.80;99.90;30.30;101283.00;;;;5076601;28;20269;-63
2023/06/19 11:40:15;;;;;;;0.47;0.47;;;27.80;99.90;32.80;101250.00;;;;5048183;28;20202;-63
2023/06/19 11:42:49;;;;;;;0.88;0.88;;;28.80;99.90;29.40;101297.00;;;;5045958;28;20655;-63
2023/06/19 11:45:21;;;;;;;0.63;0.63;;;27.60;99.90;28.40;101306.00;;;;5034403;28;20202;-63
2023/06/19 11:47:51;;;;;;;0.22;0.22;;;26.50;99.90;31.40;101263.00;;;;5014888;28;20175;-63
2023/06/19 11:50:26;;;;;;;0.55;0.55;;;26.90;99.90;28.30;101313.00;;;;5029377;28;20187;-63
2023/06/19 11:52:57;;;;;;;0.47;0.47;;;26.00;99.90;29.10;101313.00;;;;5025544;28;20202;-63
2023/06/19 11:55:40;;;;;;;0.10;0.10;;;25.60;99.90;31.60;101262.00;;;;5034260;28;20183;-63
2023/06/19 11:58:19;;;;;;;0.28;0.22;;;27.30;99.90;30.40;101286.00;;;;5033868;28;20203;-63
2023/06/19 12:01:03;;;;;;;0.47;0.47;;;26.90;99.90;29.60;101282.00;;;;5016378;28;20188;-63
2023/06/19 12:03:37;;;;;;;7.38;2.25;;;26.60;99.90;29.60;101277.00;;;;5034428;28;20233;-63
2023/06/19 12:06:14;;;;;;;2.58;1.88;;;26.90;99.90;28.40;101306.00;;;;5034180;28;20248;-63
2023/06/19 12:08:49;;;;;;;0.10;0.10;;;26.40;99.90;29.20;101299.00;;;;5032802;28;20190;-63
2023/06/19 12:11:18;;;;;;;1.20;1.10;;;25.80;99.90;31.30;101268.00;;;;5035104;28;20548;-63
2023/06/19 12:13:48;;;;;;;0.50;0.50;;;26.80;99.90;29.00;101288.00;;;;5017193;28;20183;-63
2023/06/19 12:16:22;;;;;;;0.38;0.38;;;26.20;99.90;29.80;101273.00;;;;5033464;28;20214;-63
2023/06/19 12:18:55;;;;;;;0.52;0.52;;;25.70;99.90;31.60;101232.00;;;;5033983;28;20269;-63
2023/06/19 12:21:30;;;;;;;0.10;0.10;;;27.00;99.90;31.30;101226.00;;;;5035011;28;20186;-63
2023/06/19 12:23:56;;;;;;;0.20;0.20;;;27.60;99.90;31.20;101232.00;;;;5034990;28;20190;-63
2023/06/19 12:26:24;;;;;;;1.05;0.98;;;27.60;99.90;31.50;101234.00;;;;5047348;28;20198;-63
2023/06/19 12:28:54;;;;;;;0.30;0.30;;;28.10;99.90;30.70;101259.00;;;;5033691;28;20194;-63
2023/06/19 12:31:27;;;;;;;0.10;0.10;;;27.80;99.90;32.20;101231.00;;;;5033693;28;20308;-63
2023/06/19 12:34:01;;;;;;;0.10;0.10;;;27.90;99.90;32.50;101220.00;;;;5034987;28;20194;-63
2023/06/19 12:36:49;;;;;;;0.77;0.77;;;28.20;99.90;30.30;101230.00;;;;5034843;28;20195;-63
2023/06/19 12:39:27;;;;;;;0.28;0.28;;;26.90;99.90;30.70;101251.00;;;;5031918;28;20552;-63
2023/06/19 12:42:07;;;;;;;0.57;0.55;;;26.80;99.90;31.10;101258.00;;;;5028358;28;20564;-63
2023/06/19 12:44:35;;;;;;;0.10;0.10;;;27.30;99.90;31.80;101234.00;;;;5033851;28;20187;-63
2023/06/19 12:47:10;;;;;;;1.38;1.38;;;27.50;99.90;29.80;101259.00;;;;5034795;28;20189;-63
2023/06/19 12:49:44;;;;;;;0.28;0.28;;;27.10;99.90;30.40;101248.00;;;;5017073;28;20190;-63
2023/06/19 12:52:13;;;;;;;0.10;0.10;;;26.80;99.90;29.90;101258.00;;;;5033331;28;20206;-63
2023/06/19 12:54:45;;;;;;;0.52;0.52;;;26.40;99.90;31.60;101238.00;;;;5032705;28;20262;-63
2023/06/19 12:57:16;;;;;;;0.40;0.40;;;27.10;99.90;32.80;101219.00;;;;5034101;28;20232;-63
2023/06/19 12:59:44;;;;;;;2.50;0.85;;;28.00;99.90;32.10;101204.00;;;;5013648;28;20184;-63
2023/06/19 13:02:33;;;;;;;1.48;1.38;;;28.30;99.90;31.30;101229.00;;;;5033542;28;20195;-63
2023/06/19 13:05:05;;;;;;;2.83;1.25;;;28.20;99.90;29.80;101244.00;;;;5027602;28;20187;-63
2023/06/19 13:07:33;;;;;;;0.90;0.90;;;27.10;99.90;32.40;101207.00;;;;5033987;28;20193;-63
2023/06/19 13:10:05;;;;;;;0.20;0.20;;;27.80;99.90;32.80;101195.00;;;;5034347;28;20187;-63
2023/06/19 13:12:43;;;;;;;0.35;0.35;;;28.40;99.90;33.70;101183.00;;;;5033032;28;20238;-63
2023/06/19 13:15:21;;;;;;;0.40;0.40;;;29.10;99.90;32.30;101206.00;;;;5033120;28;20198;-63
2023/06/19 13:18:01;;;;;;;0.20;0.20;;;28.60;99.90;30.90;101217.00;;;;5030165;28;20205;-63
2023/06/19 13:20:32;;;;;;;0.68;0.63;;;27.90;99.90;31.00;101200.00;;;;5026599;28;20189;-63
2023/06/19 13:23:10;;;;;;;0.50;0.50;;;27.60;99.90;30.40;101236.00;;;;5034257;28;20209;-63
2023/06/19 13:25:43;;;;;;;0.77;0.73;;;27.10;99.90;30.90;101233.00;;;;5031077;28;20262;-63
2023/06/19 13:28:17;;;;;;;0.10;0.10;;;27.30;99.90;31.20;101220.00;;;;5033724;28;20210;-63
2023/06/19 13:30:56;;;;;;;0.10;0.10;;;27.30;99.90;32.00;101202.00;;;;5016697;28;20233;-63
2023/06/19 13:33:30;;;;;;;4.28;2.75;;;27.60;99.90;32.00;101209.00;;;;5033860;28;20219;-63
2023/06/19 13:36:07;;;;;;;0.55;0.47;;;28.00;99.90;32.50;101197.00;;;;5033389;28;20725;-63
2023/06/19 13:38:46;;;;;;;0.20;0.20;;;28.20;99.90;30.60;101225.00;;;;5033576;28;20183;-63
2023/06/19 13:41:18;;;;;;;0.10;0.10;;;27.60;99.90;30.60;101230.00;;;;5032464;28;20273;-63
2023/06/19 13:43:50;;;;;;;0.75;0.75;;;27.20;99.90;32.40;101212.00;;;;5032147;28;20554;-63
2023/06/19 13:46:21;;;;;;;0.30;0.30;;;27.80;99.90;32.70;101192.00;;;;5032553;28;20528;-63
2023/06/19 13:48:51;;;;;;;1.92;1.38;;;28.40;99.90;31.20;101209.00;;;;5020210;28;20175;-63
2023/06/19 13:51:27;;;;;;;2.72;2.28;;;28.20;99.90;29.80;101234.00;;;;5028985;28;20183;-63
2023/06/19 13:53:58;;;;;;;4.97;1.08;;;27.60;99.90;30.40;101207.00;;;;5032984;28;20217;-63
2023/06/19 13:56:32;;;;;;;0.10;0.10;;;26.90;99.90;28.80;101254.00;;;;5033468;28;20195;-63
2023/06/19 13:59:05;;;;;;;1.08;0.93;;;26.20;99.90;30.10;101236.00;;;;5033525;28;20274;-63
2023/06/19 14:01:36;;;;;;;0.60;0.60;;;26.20;99.90;30.40;101220.00;;;;5032008;28;20198;-63
2023/06/19 14:04:08;;;;;;;0.90;0.90;;;26.60;99.90;30.80;101205.00;;;;5028434;28;20278;-63
2023/06/19 14:06:42;;;;;;;0.10;0.10;;;26.90;99.90;31.10;101205.00;;;;5033256;28;20186;-63
2023/06/19 14:09:17;;;;;;;0.10;0.10;;;27.10;99.90;31.70;101164.00;;;;5031682;28;20194;-63
2023/06/19 14:11:49;;;;;;;2.55;1.40;;;27.50;99.90;30.90;101197.00;;;;5033420;28;20238;-63
2023/06/19 14:14:17;;;;;;;0.55;0.55;;;27.20;99.90;31.30;101184.00;;;;5032687;28;20182;-63
2023/06/19 14:16:43;;;;;;;0.10;0.10;;;27.20;99.90;30.50;101190.00;;;;5032995;28;20672;-63
2023/06/19 14:19:12;;;;;;;0.80;0.80;;;27.00;99.90;31.20;101157.00;;;;5048595;28;20218;-63
2023/06/19 14:21:41;;;;;;;3.33;1.55;;;27.10;99.90;31.80;101171.00;;;;5024687;28;20190;-63
2023/06/19 14:24:16;;;;;;;0.13;0.13;;;27.50;99.90;31.20;101175.00;;;;5031537;28;20273;-63
2023/06/19 14:26:42;;;;;;;0.98;0.20;;;27.40;99.90;30.90;101174.00;;;;5032713;28;20215;-63
2023/06/19 14:29:18;;;;;;;0.52;0.45;;;27.30;99.90;30.90;101190.00;;;;5015461;28;20260;-63
2023/06/19 14:31:48;;;;;;;0.45;0.45;;;27.30;99.90;31.70;101180.00;;;;5032769;28;20214;-63
2023/06/19 14:34:26;;;;;;;0.38;0.30;;;27.50;99.90;32.00;101169.00;;;;5031525;28;20211;-63
2023/06/19 14:36:54;;;;;;;0.10;0.10;;;27.70;99.90;32.90;101159.00;;;;5032411;28;20637;-63
2023/06/19 14:39:33;;;;;;;1.55;0.90;;;28.10;99.90;31.20;101166.00;;;;5032985;28;20227;-63
2023/06/19 14:42:03;;;;;;;0.65;0.65;;;27.80;99.90;31.10;101175.00;;;;5031699;28;20193;-63
2023/06/19 14:44:34;;;;;;;0.10;0.10;;;27.50;99.90;31.50;101164.00;;;;5031658;28;20649;-63
2023/06/19 14:47:06;;;;;;;2.40;1.45;;;27.70;99.90;29.60;101188.00;;;;5032828;28;20183;-63
2023/06/19 14:49:41;;;;;;;0.73;0.73;;;27.10;99.90;30.00;101190.00;;;;5032615;28;20240;-63
2023/06/19 14:52:21;;;;;;;0.35;0.35;;;26.90;99.90;31.40;101176.00;;;;5031281;28;20225;-63
2023/06/19 14:54:52;;;;;;;0.10;0.10;;;27.10;99.90;32.00;101165.00;;;;5032971;28;20645;-64
2023/06/19 14:57:26;;;;;;;0.55;0.55;;;27.30;99.90;31.10;101157.00;;;;5032880;28;20687;-64
2023/06/19 14:59:55;;;;;;;0.10;0.10;;;27.60;99.90;31.90;101153.00;;;;5031575;28;20541;-64
2023/06/19 15:02:26;;;;;;;0.10;0.10;;;27.70;99.90;32.70;101159.00;;;;5043150;28;20201;-64
2023/06/19 15:05:03;;;;;;;0.47;0.47;;;28.20;99.90;30.50;101185.00;;;;5058636;28;20197;-64
2023/06/19 15:07:34;;;;;;;0.10;0.10;;;27.60;99.90;31.20;101180.00;;;;5030906;28;20186;-63
2023/06/19 15:10:11;;;;;;;0.10;0.10;;;27.50;99.90;31.90;101176.00;;;;5031111;28;20792;-64
2023/06/19 15:12:42;;;;;;;1.60;0.98;;;27.50;99.90;31.80;101170.00;;;;5031053;28;20201;-63
2023/06/19 15:15:17;;;;;;;0.10;0.10;;;27.60;99.90;32.70;101151.00;;;;5031482;28;20207;-64
2023/06/19 15:17:45;;;;;;;1.10;0.82;;;28.10;99.90;30.80;101164.00;;;;5029112;28;20201;-64
2023/06/19 15:20:16;;;;;;;0.38;0.30;;;27.50;99.90;30.50;101173.00;;;;5036068;28;20278;-63
2023/06/19 15:22:47;;;;;;;0.50;0.50;;;27.40;99.90;31.20;101164.00;;;;5034851;28;20182;-63
2023/06/19 15:25:21;;;;;;;1.65;0.95;;;27.50;99.90;31.20;101165.00;;;;5018309;28;20668;-63
2023/06/19 15:27:55;;;;;;;0.10;0.10;;;27.60;99.90;31.70;101151.00;;;;5036306;28;20190;-63
2023/06/19 15:30:26;;;;;;;0.85;0.52;;;27.70;99.90;31.70;101148.00;;;;5015300;28;20607;-64
2023/06/19 15:33:03;;;;;;;0.10;0.10;;;27.70;99.90;32.50;101124.00;;;;5067718;28;20207;-64
2023/06/19 15:35:41;;;;;;;0.68;0.68;;;28.10;99.90;31.40;101147.00;;;;5025494;28;20531;-64
2023/06/19 15:38:13;;;;;;;0.10;0.10;;;28.00;99.90;30.80;101145.00;;;;5034713;28;20261;-63
2023/06/19 15:40:49;;;;;;;0.30;0.30;;;27.60;99.90;32.10;101121.00;;;;5035856;28;20278;-64
2023/06/19 15:43:28;;;;;;;0.20;0.20;;;28.00;99.90;31.50;101140.00;;;;5035963;28;20278;-64
2023/06/19 15:46:07;;;;;;;0.20;0.20;;;27.60;99.90;32.00;101128.00;;;;5034512;28;20191;-64
2023/06/19 15:48:39;;;;;;;1.05;1.02;;;27.90;99.90;32.10;101102.00;;;;5034832;28;20221;-64
2023/06/19 15:51:19;;;;;;;0.10;0.10;;;28.00;99.90;32.90;101107.00;;;;5034272;28;20179;-64
2023/06/19 15:53:50;;;;;;;0.95;0.95;;;28.50;99.90;32.30;101100.00;;;;5034830;28;20183;-64
2023/06/19 15:56:27;;;;;;;0.10;0.10;;;28.40;99.90;32.50;101112.00;;;;5016012;28;20555;-64
2023/06/19 15:58:56;;;;;;;0.10;0.10;;;28.50;99.90;31.80;101126.00;;;;5067968;28;20193;-64
2023/06/19 16:01:28;;;;;;;0.10;0.10;;;28.30;99.90;31.70;101124.00;;;;5035769;28;20654;-64
2023/06/19 16:03:55;;;;;;;0.10;0.10;;;28.00;99.90;31.30;101134.00;;;;5034110;28;20600;-64
2023/06/19 16:06:28;;;;;;;0.10;0.10;;;27.70;99.90;31.60;101135.00;;;;5042813;28;20249;-64
2023/06/19 16:08:59;;;;;;;0.10;0.10;;;27.70;99.90;31.50;101134.00;;;;5033280;28;20206;-64
2023/06/19 16:11:30;;;;;;;0.85;0.30;;;27.80;99.90;31.30;101146.00;;;;5034533;28;20195;-64
2023/06/19 16:13:59;;;;;;;0.10;0.10;;;27.70;99.90;31.00;101145.00;;;;5017789;28;20203;-64
2023/06/19 16:16:39;;;;;;;0.10;0.10;;;27.40;99.90;31.40;101144.00;;;;5033845;28;20262;-64
2023/06/19 16:19:13;;;;;;;0.30;0.28;;;27.50;99.90;31.70;101143.00;;;;5033649;28;20641;-64
2023/06/19 16:21:53;;;;;;;0.10;0.10;;;27.60;99.90;31.80;101130.00;;;;5035126;28;20213;-64
2023/06/19 16:24:27;;;;;;;0.10;0.10;;;27.80;99.90;31.50;101137.00;;;;5033839;28;20191;-64
2023/06/19 16:27:00;;;;;;;0.73;0.73;;;27.60;99.90;30.60;101137.00;;;;5017195;28;20190;-64
2023/06/19 16:29:35;;;;;;;0.88;0.88;;;27.30;99.90;30.50;101138.00;;;;5033888;28;20282;-63
2023/06/19 16:32:06;;;;;;;0.20;0.20;;;27.30;99.90;29.70;101147.00;;;;5033261;28;20288;-63
2023/06/19 16:34:40;;;;;;;0.20;0.20;;;26.80;99.90;30.70;101136.00;;;;5034884;28;20191;-63
2023/06/19 16:37:16;;;;;;;0.10;0.10;;;27.00;99.90;31.00;101130.00;;;;5033418;28;20210;-64
2023/06/19 16:39:47;;;;;;;0.10;0.10;;;27.10;99.90;31.30;101121.00;;;;5034839;28;20183;-64
2023/06/19 16:42:22;;;;;;;0.17;0.17;;;27.30;99.90;31.20;101127.00;;;;5034618;28;20186;-64
2023/06/19 16:44:51;;;;;;;0.75;0.50;;;27.40;99.90;30.50;101128.00;;;;5034001;28;20206;-63
2023/06/19 16:47:19;;;;;;;0.20;0.20;;;27.20;99.90;31.70;101119.00;;;;5033444;28;20194;-63
2023/06/19 16:49:48;;;;;;;0.10;0.10;;;27.30;99.90;30.90;101128.00;;;;5041151;28;20194;-63
2023/06/19 16:52:22;;;;;;;2.72;1.75;;;27.30;99.90;31.20;101121.00;;;;5065127;28;20673;-63
2023/06/19 16:55:00;;;;;;;0.63;0.57;;;27.40;99.90;31.80;101091.00;;;;5034630;28;20667;-64
2023/06/19 16:57:33;;;;;;;0.90;0.90;;;27.60;99.90;31.90;101108.00;;;;5023351;28;20552;-64
2023/06/19 17:00:05;;;;;;;0.10;0.10;;;27.70;99.90;32.30;101080.00;;;;5034560;28;20179;-64
2023/06/19 17:02:45;;;;;;;0.75;0.75;;;28.20;99.90;31.50;101104.00;;;;5034272;28;20195;-63
2023/06/19 17:05:11;;;;;;;0.20;0.20;;;27.70;99.90;31.50;101088.00;;;;5029898;28;20182;-64
2023/06/19 17:07:54;;;;;;;0.10;0.10;;;27.80;99.90;32.10;101091.00;;;;5016718;28;20183;-64
2023/06/19 17:10:26;;;;;;;0.10;0.10;;;27.80;99.90;32.90;101084.00;;;;5034219;28;20274;-64
2023/06/19 17:13:03;;;;;;;0.20;0.20;;;28.20;99.90;31.20;101106.00;;;;5033248;28;20198;-64
2023/06/19 17:15:36;;;;;;;0.10;0.10;;;28.10;99.90;30.40;101117.00;;;;5032692;28;20182;-64
2023/06/19 17:18:07;;;;;;;0.17;0.17;;;27.40;99.90;30.20;101099.00;;;;5034108;28;20194;-64
2023/06/19 17:20:36;;;;;;;0.60;0.60;;;26.90;99.90;30.40;101092.00;;;;5034617;28;20285;-64
2023/06/19 17:23:05;;;;;;;2.03;1.88;;;27.00;99.90;30.40;101119.00;;;;5029383;28;20736;-64
2023/06/19 17:25:33;;;;;;;2.25;0.80;;;26.90;99.90;31.20;101114.00;;;;5065602;28;20194;-63
2023/06/19 17:28:02;;;;;;;0.10;0.10;;;27.20;99.90;30.80;101106.00;;;;5032462;28;20624;-64
2023/06/19 17:30:28;;;;;;;0.10;0.10;;;27.00;99.90;32.00;101104.00;;;;5034130;28;20269;-64
2023/06/19 17:33:06;;;;;;;0.20;0.20;;;27.50;99.90;32.20;101102.00;;;;5032335;28;20733;-64
2023/06/19 17:35:38;;;;;;;2.15;2.05;;;27.70;99.90;31.70;101107.00;;;;5047765;28;20281;-64
2023/06/19 17:38:12;;;;;;;0.60;0.25;;;27.70;99.90;31.40;101107.00;;;;5032760;28;20265;-64
2023/06/19 17:41:01;;;;;;;0.10;0.10;;;27.60;99.90;31.90;101101.00;;;;5016213;28;20194;-63
2023/06/19 17:43:39;;;;;;;0.20;0.20;;;27.60;99.90;32.10;101092.00;;;;5032477;28;20210;-64
2023/06/19 17:46:20;;;;;;;0.43;0.40;;;27.80;99.90;31.30;101099.00;;;;5033517;28;20225;-64
2023/06/19 17:48:51;;;;;;;0.20;0.20;;;27.70;99.90;31.70;101092.00;;;;5033416;28;20193;-64
2023/06/19 17:51:34;;;;;;;0.10;0.10;;;27.70;99.90;31.60;101096.00;;;;5029582;28;20202;-64
2023/06/19 17:54:10;;;;;;;0.10;0.10;;;27.60;99.90;31.60;101076.00;;;;5028143;28;20191;-64
2023/06/19 17:56:42;;;;;;;0.10;0.10;;;27.60;99.90;32.50;101099.00;;;;5033244;28;20183;-64
2023/06/19 17:59:18;;;;;;;1.45;1.10;;;27.90;99.90;31.00;101109.00;;;;5033218;28;20258;-64
2023/06/19 18:01:49;;;;;;;0.10;0.10;;;27.60;99.90;30.60;101099.00;;;;5032047;28;20220;-64
2023/06/19 18:04:21;;;;;;;0.10;0.10;;;26.90;99.90;31.90;101114.00;;;;5033161;28;20217;-64
2023/06/19 18:06:56;;;;;;;0.10;0.10;;;27.20;99.90;31.20;101115.00;;;;5032127;28;20175;-64
2023/06/19 18:09:30;;;;;;;0.20;0.20;;;27.20;99.90;31.70;101112.00;;;;5033486;28;20193;-64
2023/06/19 18:12:04;;;;;;;0.10;0.10;;;27.40;99.90;31.40;101123.00;;;;5031840;28;20202;-64
2023/06/19 18:14:32;;;;;;;0.10;0.10;;;27.40;99.90;30.90;101123.00;;;;5037067;28;20181;-64
2023/06/19 18:17:07;;;;;;;0.10;0.10;;;27.10;99.90;30.30;101134.00;;;;5025581;28;20187;-64
2023/06/19 18:19:33;;;;;;;0.15;0.15;;;26.90;99.90;31.90;101103.00;;;;5015588;28;20185;-64
2023/06/19 18:22:02;;;;;;;2.30;0.52;;;27.10;99.90;32.20;101118.00;;;;5015850;28;20204;-64
2023/06/19 18:24:41;;;;;;;0.20;0.20;;;27.60;99.90;31.00;101126.00;;;;5031374;28;20187;-64